Necton, United Kingdom
Current Conditions -  °F | °C
As of 1:50 PM on Thursday 29 Jan 2015 (Local Time) from EGYM Reporting Station
Rain Showers Rain Showers  
Wind Chill: 30°   Ceiling: 2200
Heat Index: 39°   Visibility: 6mi
Dew Point: 34°   Wind: 18mph
Humidity: 81%   Direction: 250°WSW
Pressure: 28.82"   Gusts: NA
Location:  52.65°N, 0.78°E
Report Text: EGYM 291350Z 25016KT 9999 VCSH FEW010 BKN022 04/01 Q0976 WHT TEMPO 1500 SHSN SCT005 AMB
Loading
Personal Weather Stations






























Interactive Weather Map New forecast layout! Learn more

10-Day Weather Forecast

Advertisements
Track Severe Weather on mobile